Pinedale, Wyoming
Current Conditions -  °F | °C
As of 7:15 AM on Thursday 18 Dec 2014 (Local Time) from KPNA Reporting Station
Clear Clear  
Wind Chill: -3°   Ceiling: Unl
Heat Index:   Visibility: 10mi
Dew Point:   Wind: 6mph
Humidity: 92%   Direction: 260°W
Pressure: 30.07"   Gusts: NA
Location:  42.87°N, 109.86°W
Report Text: KPNA 181415Z AUTO 26005KT 10SM CLR M14/M15 A3007 RMK AO2
Loading
Personal Weather Stations






























Interactive Weather Map New forecast layout! Learn more

10-Day Weather Forecast

Advertisements
Track Severe Weather on mobile